»·PEaware :: N4D KSBP-KSBA

N4D :: KSBP-KSBA

FLIGHT INFORMATION

Flight Status: Arrived
Operator: Privately registered:
United States
More flights under this callsign
Pilot: Alec D. (17934)
Aircraft: BEECH AIRCRAFT SUPER KING AIR COMMUTER
(BE20)
More flights by this aircraft type
Origin: KSBP San Luis Co Regl
United States
Destination: KSBA Santa Barbara Mun
United States
More flights between these airports :: More routes between these airports
Route: CREPE3 MQO V27 GVO
File this flight plan on PilotEdge
Remarks:
Altitude:
(Current/Filed)
9,000ft
Speed:
(Current/Filed)
260kts
Departed: 02-Jul-18 08:42 AM
Arrived: 02-Jul-18 09:32 AM
Distance/Time
Traveled:
63nm/0:50
Distance/Time
To Go:
Arrived

Flight Plot

Page will automatically refresh every two minutes.


Map Options




Map Legend


Flown Route
Filed Route
Departure Airport
Arrival Airport
Navaid (VOR, NDB)
Fix

Horizontal Profiles

Position Reports

Time Latitude Longitude Heading Altitude Ground
Speed
02-Jul-18 08:06 35.238276 -120.639175 267 216ft 0kts
02-Jul-18 08:07 35.238276 -120.639175 267 216ft 0kts
02-Jul-18 08:08 35.238276 -120.639175 267 216ft 0kts
02-Jul-18 08:09 35.238276 -120.639175 267 216ft 0kts
02-Jul-18 08:10 35.238276 -120.639175 267 216ft 0kts
02-Jul-18 08:11 35.238276 -120.639175 267 216ft 0kts
02-Jul-18 08:12 35.238276 -120.639175 267 216ft 0kts
02-Jul-18 08:13 35.238276 -120.639175 267 216ft 0kts
02-Jul-18 08:14 35.238276 -120.639175 267 216ft 0kts
02-Jul-18 08:15 35.238276 -120.639175 267 216ft 0kts
02-Jul-18 08:16 35.238276 -120.639175 267 216ft 0kts
02-Jul-18 08:17 35.238276 -120.639175 267 216ft 0kts
02-Jul-18 08:18 35.238276 -120.639175 267 216ft 0kts
02-Jul-18 08:19 35.238276 -120.639175 267 216ft 0kts
02-Jul-18 08:20 35.238276 -120.639175 267 216ft 0kts
02-Jul-18 08:21 35.238276 -120.639175 267 216ft 0kts
02-Jul-18 08:22 35.238276 -120.639175 267 216ft 0kts
02-Jul-18 08:23 35.238276 -120.639175 267 216ft 0kts
02-Jul-18 08:24 35.238276 -120.639175 267 216ft 0kts
02-Jul-18 08:25 35.238276 -120.639176 267 216ft 0kts
02-Jul-18 08:26 35.238275 -120.639184 267 216ft 0kts
02-Jul-18 08:27 35.238275 -120.639188 267 216ft 0kts
02-Jul-18 08:28 35.238275 -120.639192 267 216ft 0kts
02-Jul-18 08:29 35.238275 -120.639195 267 216ft 0kts
02-Jul-18 08:30 35.238275 -120.639198 267 216ft 0kts
02-Jul-18 08:31 35.238275 -120.639201 267 216ft 0kts
02-Jul-18 08:32 35.238275 -120.639204 267 216ft 0kts
02-Jul-18 08:33 35.238275 -120.639207 267 216ft 0kts
02-Jul-18 08:34 35.238274 -120.639210 267 216ft 0kts
02-Jul-18 08:35 35.238274 -120.639214 267 216ft 0kts
02-Jul-18 08:35 35.238274 -120.639216 267 216ft 0kts
02-Jul-18 08:36 35.238274 -120.639220 267 216ft 0kts
02-Jul-18 08:37 35.238274 -120.639223 267 216ft 0kts
02-Jul-18 08:38 35.236639 -120.637839 123 216ft 21kts
02-Jul-18 08:39 35.233452 -120.632465 213 216ft 10kts
02-Jul-18 08:40 35.233350 -120.632553 216 216ft 0kts
02-Jul-18 08:41 35.233347 -120.632556 216 216ft 0kts
02-Jul-18 08:42 35.235918 -120.638516 304 216ft 92kts
02-Jul-18 08:43 35.259717 -120.674933 314 1498ft 175kts
02-Jul-18 08:44 35.290874 -120.725796 303 3367ft 191kts
02-Jul-18 08:45 35.319857 -120.780394 303 5078ft 192kts
02-Jul-18 08:46 35.348863 -120.836902 291 6625ft 200kts
02-Jul-18 08:47 35.322111 -120.893118 203 8149ft 213kts
02-Jul-18 08:48 35.274246 -120.857446 113 8995ft 241kts
02-Jul-18 08:49 35.252732 -120.775973 115 9003ft 260kts
02-Jul-18 08:50 35.201465 -120.711386 140 9002ft 269kts
02-Jul-18 08:51 35.141393 -120.655883 141 9003ft 271kts
02-Jul-18 08:52 35.081240 -120.599999 141 9004ft 272kts
02-Jul-18 08:53 35.020958 -120.543734 140 9007ft 272kts
02-Jul-18 08:54 34.960818 -120.487867 141 9010ft 272kts
02-Jul-18 08:55 34.900535 -120.431895 141 9012ft 272kts
02-Jul-18 08:56 34.840103 -120.375819 141 9011ft 272kts
02-Jul-18 08:57 34.779739 -120.320004 141 9008ft 273kts
02-Jul-18 08:58 34.719081 -120.264084 140 9010ft 273kts
02-Jul-18 08:59 34.658578 -120.208436 141 9011ft 273kts
02-Jul-18 09:00 34.598109 -120.152758 140 9012ft 273kts
02-Jul-18 09:01 34.537354 -120.096873 140 9011ft 273kts
02-Jul-18 09:02 34.491332 -120.028037 123 8240ft 252kts
02-Jul-18 09:03 34.452052 -119.960195 122 7240ft 241kts
02-Jul-18 09:04 34.414081 -119.893730 122 6239ft 237kts
02-Jul-18 09:05 34.377286 -119.828095 122 5242ft 234kts
02-Jul-18 09:06 34.344513 -119.764589 108 5015ft 211kts
02-Jul-18 09:07 34.330198 -119.699822 102 5016ft 188kts
02-Jul-18 09:08 34.345855 -119.656391 355 4581ft 167kts
02-Jul-18 09:09 34.376291 -119.694946 301 3511ft 158kts
02-Jul-18 09:10 34.397580 -119.738430 295 2210ft 143kts
02-Jul-18 09:11 34.413452 -119.781162 290 1141ft 132kts
02-Jul-18 09:12 34.427562 -119.821939 292 942ft 128kts
02-Jul-18 09:13 34.425176 -119.863146 214 1995ft 143kts
02-Jul-18 09:14 34.389536 -119.893440 216 3538ft 189kts
02-Jul-18 09:15 34.344281 -119.934169 217 4022ft 212kts
02-Jul-18 09:16 34.296296 -119.919712 117 4031ft 204kts
02-Jul-18 09:17 34.257944 -119.882449 200 4021ft 193kts
02-Jul-18 09:18 34.246233 -119.938225 281 4024ft 189kts
02-Jul-18 09:19 34.257099 -120.000607 282 4021ft 190kts
02-Jul-18 09:20 34.268140 -120.063243 282 4021ft 189kts
02-Jul-18 09:21 34.279045 -120.125318 282 4018ft 188kts
02-Jul-18 09:22 34.304774 -120.173329 357 4020ft 187kts
02-Jul-18 09:23 34.355180 -120.161768 12 4037ft 171kts
02-Jul-18 09:24 34.390440 -120.146895 45 4005ft 160kts
02-Jul-18 09:27 34.426241 -120.042960 92 3016ft 142kts
02-Jul-18 09:28 34.424198 -119.994795 91 2365ft 140kts
02-Jul-18 09:29 34.425489 -119.950887 88 1762ft 115kts
02-Jul-18 09:30 34.426327 -119.912400 90 998ft 112kts
02-Jul-18 09:31 34.427113 -119.875032 91 438ft 110kts
02-Jul-18 09:32 34.427726 -119.843030 91 14ft 40kts
02-Jul-18 09:33 34.427248 -119.837682 162 14ft 0kts
02-Jul-18 09:34 34.427195 -119.837662 163 14ft 0kts
02-Jul-18 09:35 34.425088 -119.837651 165 14ft 22kts
02-Jul-18 09:36 34.423365 -119.835764 72 14ft 0kts
02-Jul-18 09:37 34.423366 -119.835759 72 14ft 0kts
02-Jul-18 09:38 34.423366 -119.835759 72 14ft 0kts
02-Jul-18 09:39 34.423366 -119.835759 72 14ft 0kts
02-Jul-18 09:40 34.423366 -119.835759 72 14ft 0kts
02-Jul-18 09:41 34.423366 -119.835759 72 14ft 0kts
02-Jul-18 09:42 34.423366 -119.835759 72 14ft 0kts

Navigation Log

Ident Type
1. KSBP Airport
2. CREPE Fix
3. SOJSU Fix
4. MQO Navaid
5. AVILA Fix
6. NINOO Fix
7. FABEG Fix
8. ORCUT Fix
9. AFOXY Fix
10. GVO Navaid
11. KSBA Airport